Time;durP1;ratioP1;P1;durP2;ratioP2;P2;SDS_P1;SDS_P2;PMS_P1;PMS_P2;Temp;Humidity;BMP_temperature;BMP_pressure;BME280_temperature;BME280_humidity;BME280_pressure;Samples;Min_cycle;Max_cycle;Signal;HPM_P1;HPM_P2
2023/01/14 00:00:28;;;;;;;30.80;20.00;;;;;;;-2.92;87.04;100291.52;105818;1253;71493;-74
2023/01/14 00:02:56;;;;;;;32.00;21.50;;;;;;;-2.95;87.05;100296.52;105987;1254;70592;-72
2023/01/14 00:05:22;;;;;;;33.00;22.40;;;;;;;-3.00;87.27;100298.60;105925;1256;60546;-76
2023/01/14 00:07:49;;;;;;;28.70;17.50;;;;;;;-3.01;87.24;100304.58;106033;1251;60523;-75
2023/01/14 00:10:17;;;;;;;32.30;20.10;;;;;;;-3.03;87.41;100299.99;106158;1254;74661;-73
2023/01/14 00:12:44;;;;;;;32.30;20.70;;;;;;;-2.95;87.10;100305.14;105900;1251;69689;-74
2023/01/14 00:15:10;;;;;;;32.60;20.70;;;;;;;-2.85;86.96;100299.52;106434;1254;71394;-77
2023/01/14 00:17:38;;;;;;;32.60;20.50;;;;;;;-2.85;87.07;100303.85;107347;1250;60814;-74
2023/01/14 00:20:05;;;;;;;31.80;21.00;;;;;;;-2.89;87.15;100311.16;106797;1251;60988;-74
2023/01/14 00:22:33;;;;;;;31.80;20.60;;;;;;;-2.94;87.38;100307.23;106158;1251;73191;-77
2023/01/14 00:25:03;;;;;;;32.60;20.40;;;;;;;-2.95;87.29;100309.16;106114;1251;69356;-73
2023/01/14 00:27:30;;;;;;;31.10;19.00;;;;;;;-2.86;87.11;100308.94;107179;1251;73693;-75
2023/01/14 00:29:57;;;;;;;31.60;21.30;;;;;;;-2.80;86.98;100306.58;106696;1251;59709;-75
2023/01/14 00:32:25;;;;;;;35.40;21.50;;;;;;;-2.82;86.99;100308.57;106023;1255;60404;-75
2023/01/14 00:34:51;;;;;;;32.40;20.90;;;;;;;-2.85;87.25;100304.37;105870;1253;74732;-74
2023/01/14 00:37:19;;;;;;;31.40;20.50;;;;;;;-2.89;87.18;100309.06;106061;1251;71613;-76
2023/01/14 00:39:49;;;;;;;32.30;20.30;;;;;;;-2.83;87.11;100303.25;106050;1253;71682;-74
2023/01/14 00:42:16;;;;;;;33.80;21.00;;;;;;;-2.77;87.06;100298.29;105855;1256;60341;-75
2023/01/14 00:44:42;;;;;;;30.10;21.20;;;;;;;-2.77;87.16;100300.88;106239;1256;60401;-71
2023/01/14 00:47:10;;;;;;;34.30;21.70;;;;;;;-2.80;87.11;100305.55;106058;1254;74137;-72
2023/01/14 00:49:37;;;;;;;36.30;21.40;;;;;;;-2.85;87.08;100310.61;105964;1255;70506;-72
2023/01/14 00:52:05;;;;;;;32.80;21.50;;;;;;;-2.86;86.92;100313.77;105907;1254;73717;-73
2023/01/14 00:54:37;;;;;;;30.90;19.40;;;;;;;-2.79;86.75;100312.06;106022;1256;60599;-70
2023/01/14 00:57:05;;;;;;;36.20;22.40;;;;;;;-2.78;86.82;100314.82;105940;1256;60405;-71
2023/01/14 00:59:32;;;;;;;35.90;22.30;;;;;;;-2.82;86.97;100312.58;105779;1257;74767;-73
2023/01/14 01:01:59;;;;;;;38.00;24.50;;;;;;;-2.88;86.92;100312.86;106005;1251;69409;-74
2023/01/14 01:04:25;;;;;;;35.10;22.20;;;;;;;-2.95;87.12;100305.20;106028;1251;73773;-73
2023/01/14 01:06:52;;;;;;;35.80;21.60;;;;;;;-2.88;87.02;100304.34;105886;1254;62125;-71
2023/01/14 01:09:19;;;;;;;31.20;21.30;;;;;;;-2.79;87.00;100298.21;106403;1254;60410;-73
2023/01/14 01:11:46;;;;;;;37.20;22.20;;;;;;;-2.79;87.09;100303.24;107104;1256;72957;-74
2023/01/14 01:14:13;;;;;;;34.10;22.70;;;;;;;-2.82;87.07;100305.81;107047;1251;71100;-72
2023/01/14 01:16:42;;;;;;;37.20;24.50;;;;;;;-2.84;87.16;100309.02;107026;1255;71661;-77
2023/01/14 01:19:08;;;;;;;36.10;21.60;;;;;;;-2.86;87.12;100307.18;105987;1251;60585;-76
2023/01/14 01:21:35;;;;;;;37.70;22.70;;;;;;;-2.78;86.86;100303.34;105999;1253;61297;-79
2023/01/14 01:24:02;;;;;;;35.40;23.30;;;;;;;-2.73;86.77;100300.02;105965;1254;73493;-78
2023/01/14 01:26:28;;;;;;;36.20;22.10;;;;;;;-2.81;86.72;100307.30;106119;1251;71545;-77
2023/01/14 01:28:56;;;;;;;36.30;22.20;;;;;;;-2.89;86.92;100297.30;106346;1254;73502;-78
2023/01/14 01:31:26;;;;;;;34.70;20.50;;;;;;;-2.98;87.06;100299.23;108057;1252;60411;-81
2023/01/14 01:33:53;;;;;;;34.80;21.50;;;;;;;-3.00;87.24;100295.35;107001;1251;60902;-75
2023/01/14 01:36:21;;;;;;;34.90;21.50;;;;;;;-2.94;87.01;100292.34;105860;1254;72580;-72
2023/01/14 01:38:48;;;;;;;32.20;21.50;;;;;;;-2.95;87.26;100283.52;106159;1251;69896;-72
2023/01/14 01:41:22;;;;;;;40.50;22.40;;;;;;;-3.03;87.68;100280.20;106090;1254;73691;-77
2023/01/14 01:44:07;;;;;;;34.50;22.20;;;;;;;-3.09;87.84;100283.60;105912;1252;60466;-77
2023/01/14 01:46:35;;;;;;;38.60;20.20;;;;;;;-3.16;87.89;100280.61;106035;1251;60759;-77
2023/01/14 01:49:26;;;;;;;27.60;18.60;;;;;;;-3.14;88.11;100279.48;106006;1251;72900;-76
2023/01/14 01:51:59;;;;;;;34.70;20.80;;;;;;;-3.14;88.25;100282.63;106843;1257;70132;-76
2023/01/14 01:54:34;;;;;;;38.20;23.20;;;;;;;-3.19;88.52;100288.01;105911;1255;70439;-80
2023/01/14 01:57:02;;;;;;;33.10;21.70;;;;;;;-3.25;88.70;100279.12;105906;1253;60472;-77
2023/01/14 01:59:32;;;;;;;36.10;22.60;;;;;;;-3.29;88.98;100279.11;106170;1256;60377;-80
2023/01/14 02:01:59;;;;;;;38.30;19.60;;;;;;;-3.19;88.84;100272.27;106313;1251;73820;-81
2023/01/14 02:04:26;;;;;;;35.20;21.60;;;;;;;-3.12;88.85;100277.67;106216;1251;70573;-80
2023/01/14 02:06:53;;;;;;;39.00;23.10;;;;;;;-3.15;89.08;100280.58;106242;1251;72056;-81
2023/01/14 02:09:19;;;;;;;39.60;20.60;;;;;;;-3.23;89.31;100277.96;106252;1251;60490;-77
2023/01/14 02:12:01;;;;;;;34.40;19.90;;;;;;;-3.30;89.47;100285.40;106558;1251;60446;-76
2023/01/14 02:14:36;;;;;;;37.50;20.60;;;;;;;-3.27;89.82;100293.80;106355;1254;73730;-77
2023/01/14 02:17:20;;;;;;;31.30;19.00;;;;;;;-3.31;89.86;100276.77;107369;1254;69549;-77
2023/01/14 02:19:50;;;;;;;37.10;22.90;;;;;;;-3.40;90.32;100275.77;106741;1257;74091;-76
2023/01/14 02:22:45;;;;;;;37.80;20.40;;;;;;;-3.46;90.87;100283.48;106992;1251;60431;-76
2023/01/14 02:25:24;;;;;;;37.20;20.20;;;;;;;-3.41;90.68;100278.58;107811;1256;60499;-78
2023/01/14 02:28:13;;;;;;;35.00;21.40;;;;;;;-3.33;90.72;100279.64;107864;1250;72225;-75
2023/01/14 02:31:14;;;;;;;36.30;21.00;;;;;;;-3.34;91.06;100275.52;107746;1254;70049;-77
2023/01/14 02:33:46;;;;;;;33.00;19.20;;;;;;;-3.37;91.27;100275.13;106683;1256;71497;-75
2023/01/14 02:36:33;;;;;;;28.20;17.40;;;;;;;-3.37;91.35;100285.53;106181;1254;60584;-73
2023/01/14 02:39:09;;;;;;;35.20;20.00;;;;;;;-3.30;91.28;100282.46;106254;1256;60421;-75
2023/01/14 02:44:39;;;;;;;32.30;19.10;;;;;;;-3.46;91.86;100288.48;105924;1254;71464;-75
2023/01/14 02:47:16;;;;;;;28.50;17.60;;;;;;;-3.51;92.24;100286.31;106061;1251;72011;-77
2023/01/14 02:49:43;;;;;;;30.60;17.70;;;;;;;-3.39;92.12;100286.65;106074;1254;62140;-76
2023/01/14 02:52:13;;;;;;;33.70;19.70;;;;;;;-3.31;91.90;100292.88;105702;1257;60514;-76
2023/01/14 02:54:50;;;;;;;35.90;20.90;;;;;;;-3.35;92.15;100294.80;105827;1251;72809;-76
2023/01/14 02:57:40;;;;;;;36.60;21.00;;;;;;;-3.41;92.38;100297.45;105974;1256;69889;-74
2023/01/14 03:00:23;;;;;;;36.80;20.10;;;;;;;-3.44;92.30;100298.45;105970;1254;72797;-72
2023/01/14 03:03:11;;;;;;;33.20;18.90;;;;;;;-3.33;92.15;100301.64;106074;1251;62060;-72
2023/01/14 03:05:56;;;;;;;33.80;20.20;;;;;;;-3.32;92.08;100301.41;105876;1251;61284;-71
2023/01/14 03:08:41;;;;;;;32.30;20.10;;;;;;;-3.36;92.47;100300.71;105995;1254;72594;-72
2023/01/14 03:11:08;;;;;;;31.40;19.40;;;;;;;-3.39;92.71;100304.30;105990;1251;71388;-73
2023/01/14 03:13:57;;;;;;;29.40;18.90;;;;;;;-3.35;92.60;100309.80;105820;1254;73735;-72
2023/01/14 03:16:37;;;;;;;32.00;18.20;;;;;;;-3.35;92.21;100310.89;106034;1251;60427;-71
2023/01/14 03:19:08;;;;;;;28.60;17.90;;;;;;;-3.45;92.65;100314.25;105994;1254;61206;-72
2023/01/14 03:21:36;;;;;;;29.00;17.50;;;;;;;-3.53;92.95;100309.41;105922;1257;72510;-73
2023/01/14 03:24:06;;;;;;;27.00;17.00;;;;;;;-3.56;93.08;100307.27;105996;1254;71242;-75
2023/01/14 03:26:33;;;;;;;29.10;17.00;;;;;;;-3.48;92.89;100312.65;106019;1254;72724;-77
2023/01/14 03:29:04;;;;;;;31.30;19.30;;;;;;;-3.49;93.16;100310.98;106123;1253;60411;-77
2023/01/14 03:31:32;;;;;;;33.40;19.60;;;;;;;-3.57;93.51;100311.30;106066;1254;60547;-75
2023/01/14 03:34:01;;;;;;;29.90;15.80;;;;;;;-3.62;94.02;100306.82;106082;1251;72626;-76
2023/01/14 03:36:29;;;;;;;21.40;14.30;;;;;;;-3.56;93.66;100309.36;106276;1251;71275;-75
2023/01/14 03:39:00;;;;;;;24.40;14.60;;;;;;;-3.56;93.23;100304.67;106278;1251;72488;-77
2023/01/14 03:44:18;;;;;;;26.10;15.20;;;;;;;-3.76;93.96;100302.89;106460;1251;60309;-72
2023/01/14 03:46:45;;;;;;;21.40;13.70;;;;;;;-3.72;93.81;100305.33;106279;1254;74711;-75
2023/01/14 03:49:12;;;;;;;19.60;12.80;;;;;;;-3.67;93.70;100309.46;106264;1251;69373;-71
2023/01/14 03:51:49;;;;;;;22.60;14.70;;;;;;;-3.72;93.80;100303.09;105908;1252;73853;-74
2023/01/14 03:54:33;;;;;;;25.50;14.50;;;;;;;-3.82;94.20;100301.57;106087;1251;60411;-71
2023/01/14 03:57:05;;;;;;;21.30;13.30;;;;;;;-3.82;94.46;100308.69;106102;1251;61013;-71
2023/01/14 03:59:42;;;;;;;26.20;14.70;;;;;;;-3.78;93.92;100303.33;106063;1255;74083;-73
2023/01/14 04:02:08;;;;;;;23.80;13.20;;;;;;;-3.84;94.15;100304.80;105740;1251;69245;-71
2023/01/14 04:04:36;;;;;;;23.40;14.10;;;;;;;-3.88;94.72;100302.21;105714;1251;72847;-70
2023/01/14 04:07:03;;;;;;;23.90;13.70;;;;;;;-3.89;94.87;100307.77;105649;1254;62038;-70
2023/01/14 04:09:30;;;;;;;17.90;11.70;;;;;;;-3.77;94.67;100309.70;105689;1255;60569;-72
2023/01/14 04:11:56;;;;;;;19.90;12.50;;;;;;;-3.74;94.28;100310.80;105686;1255;73549;-72
2023/01/14 04:17:09;;;;;;;22.00;12.50;;;;;;;-3.95;94.76;100312.86;105918;1254;71638;-71
2023/01/14 04:19:36;;;;;;;22.90;14.10;;;;;;;-3.91;94.74;100317.38;105816;1251;62070;-71
2023/01/14 04:22:04;;;;;;;25.70;13.70;;;;;;;-3.90;94.62;100318.20;105644;1254;60450;-70
2023/01/14 04:24:31;;;;;;;24.10;12.60;;;;;;;-3.96;95.04;100319.48;105688;1251;73028;-72
2023/01/14 04:26:58;;;;;;;25.50;14.00;;;;;;;-4.01;95.42;100319.33;106053;1253;71424;-71
2023/01/14 04:29:25;;;;;;;18.60;11.50;;;;;;;-4.03;95.64;100327.20;105808;1254;73867;-75
2023/01/14 04:31:52;;;;;;;18.40;11.80;;;;;;;-3.98;95.25;100319.37;106003;1254;61971;-75
2023/01/14 04:34:19;;;;;;;19.10;11.60;;;;;;;-3.94;94.90;100322.16;105997;1254;60437;-75
2023/01/14 04:36:46;;;;;;;19.30;12.30;;;;;;;-4.01;95.18;100324.36;106033;1257;74853;-73
2023/01/14 04:39:13;;;;;;;18.90;11.60;;;;;;;-4.09;95.74;100327.09;106063;1256;68442;-73
2023/01/14 04:44:26;;;;;;;20.00;12.30;;;;;;;-4.00;95.74;100331.42;106088;1255;60546;-75
2023/01/14 04:46:55;;;;;;;18.90;11.70;;;;;;;-3.98;95.34;100330.60;108153;1254;60691;-75
2023/01/14 04:49:21;;;;;;;22.00;12.40;;;;;;;-4.01;95.64;100333.00;107877;1252;73889;-72
2023/01/14 04:51:48;;;;;;;21.40;13.50;;;;;;;-4.05;95.55;100330.73;106793;1252;69747;-72
2023/01/14 04:54:16;;;;;;;19.40;13.10;;;;;;;-3.98;95.38;100328.20;106253;1253;72868;-71
2023/01/14 04:56:43;;;;;;;21.70;12.80;;;;;;;-3.88;95.09;100328.14;106213;1255;60298;-74
2023/01/14 04:59:12;;;;;;;27.10;15.30;;;;;;;-3.85;95.43;100327.17;106061;1251;61245;-71
2023/01/14 05:01:38;;;;;;;25.20;13.70;;;;;;;-3.86;95.68;100335.17;105996;1256;72567;-74
2023/01/14 05:04:06;;;;;;;25.80;14.80;;;;;;;-3.90;95.60;100329.09;105847;1258;69408;-75
2023/01/14 05:06:33;;;;;;;26.20;16.10;;;;;;;-3.85;95.29;100334.77;106112;1251;73134;-73
2023/01/14 05:09:00;;;;;;;27.30;14.90;;;;;;;-3.77;94.93;100339.80;105930;1257;60348;-72
2023/01/14 05:11:27;;;;;;;29.80;15.50;;;;;;;-3.81;94.96;100332.39;105837;1253;61504;-71
2023/01/14 05:13:57;;;;;;;26.60;15.20;;;;;;;-3.88;95.09;100331.62;106233;1254;74000;-72
2023/01/14 05:16:26;;;;;;;26.30;14.40;;;;;;;-3.92;95.25;100332.13;106384;1254;69596;-74
2023/01/14 05:18:53;;;;;;;27.30;15.20;;;;;;;-3.83;94.91;100329.52;106237;1254;72565;-71
2023/01/14 05:21:21;;;;;;;25.50;15.40;;;;;;;-3.75;94.57;100336.80;106553;1251;60437;-72
2023/01/14 05:23:48;;;;;;;25.90;15.00;;;;;;;-3.78;94.88;100335.17;106102;1256;60341;-74
2023/01/14 05:26:16;;;;;;;31.50;15.60;;;;;;;-3.84;94.76;100338.02;106033;1251;74240;-73
2023/01/14 05:28:42;;;;;;;29.90;15.70;;;;;;;-3.92;94.89;100336.60;106106;1254;70602;-73
2023/01/14 05:31:09;;;;;;;27.10;15.90;;;;;;;-3.86;94.74;100337.77;106472;1254;73178;-74
2023/01/14 05:33:37;;;;;;;29.00;16.80;;;;;;;-3.77;94.65;100342.91;106698;1253;60545;-72
2023/01/14 05:36:05;;;;;;;32.00;17.30;;;;;;;-3.78;94.84;100344.53;106160;1253;60316;-73
2023/01/14 05:38:32;;;;;;;28.70;15.50;;;;;;;-3.84;94.93;100344.94;105881;1254;75171;-75
2023/01/14 05:40:58;;;;;;;29.70;15.40;;;;;;;-3.86;95.21;100346.60;106209;1254;70976;-75
2023/01/14 05:46:18;;;;;;;24.50;14.20;;;;;;;-3.72;94.26;100344.48;108172;1252;59670;-74
2023/01/14 05:48:45;;;;;;;23.80;13.80;;;;;;;-3.80;94.52;100347.70;108996;1251;60340;-76
2023/01/14 05:51:14;;;;;;;25.50;15.10;;;;;;;-3.90;94.90;100349.88;108888;1256;73775;-78
2023/01/14 05:53:41;;;;;;;24.90;14.00;;;;;;;-3.87;94.75;100347.48;108759;1251;70299;-76
2023/01/14 05:56:08;;;;;;;29.30;16.80;;;;;;;-3.84;94.62;100349.96;109109;1252;70675;-76
2023/01/14 05:58:35;;;;;;;28.80;16.00;;;;;;;-3.87;95.31;100356.99;108644;1252;60419;-75
2023/01/14 06:06:43;;;;;;;26.10;15.50;;;;;;;-3.70;95.04;100357.02;108041;1254;67878;-79
2023/01/14 06:09:11;;;;;;;27.70;14.90;;;;;;;-3.72;95.00;100359.38;108800;1254;72455;-78
2023/01/14 06:11:48;;;;;;;29.50;15.20;;;;;;;-3.78;95.44;100358.20;108703;1251;60408;-78
2023/01/14 06:14:20;;;;;;;27.80;14.20;;;;;;;-3.80;95.37;100354.80;109301;1251;59431;-80
2023/01/14 06:16:51;;;;;;;28.00;15.90;;;;;;;-3.66;95.17;100356.87;108634;1251;73766;-82
2023/01/14 06:19:18;;;;;;;30.20;17.30;;;;;;;-3.62;95.08;100351.86;108738;1254;70436;-81
2023/01/14 06:21:45;;;;;;;30.00;15.80;;;;;;;-3.64;95.34;100356.28;108698;1250;72697;-82
2023/01/14 06:24:12;;;;;;;25.10;13.40;;;;;;;-3.63;95.56;100358.98;108884;1251;58513;-83
2023/01/14 06:26:40;;;;;;;21.10;12.70;;;;;;;-3.59;94.47;100357.96;108692;1254;60338;-82
2023/01/14 06:29:11;;;;;;;21.30;12.20;;;;;;;-3.55;93.57;100356.59;108868;1254;71261;-79
2023/01/14 06:31:38;;;;;;;24.20;13.40;;;;;;;-3.63;93.72;100360.58;109318;1253;68248;-78
2023/01/14 06:34:06;;;;;;;20.70;13.50;;;;;;;-3.73;94.32;100360.60;109267;1251;72490;-80
2023/01/14 06:36:34;;;;;;;23.50;12.50;;;;;;;-3.79;94.49;100360.30;108432;1251;59609;-80
2023/01/14 06:39:02;;;;;;;19.90;12.20;;;;;;;-3.71;94.44;100370.23;108470;1251;60052;-81
2023/01/14 06:41:29;;;;;;;31.40;14.40;;;;;;;-3.66;94.27;100364.48;108481;1256;71353;-79
2023/01/14 06:43:56;;;;;;;28.00;14.90;;;;;;;-3.73;94.33;100363.54;108535;1251;70476;-78
2023/01/14 06:46:24;;;;;;;25.70;14.50;;;;;;;-3.80;94.64;100365.72;108456;1251;72509;-80
2023/01/14 06:48:52;;;;;;;22.70;13.90;;;;;;;-3.78;94.48;100365.66;109006;1252;60712;-86
2023/01/14 06:51:20;;;;;;;22.20;12.80;;;;;;;-3.67;94.20;100360.36;109701;1251;60336;-84
2023/01/14 06:53:47;;;;;;;23.90;13.20;;;;;;;-3.69;94.06;100352.14;109718;1251;72999;-79
2023/01/14 06:56:21;;;;;;;21.30;13.10;;;;;;;-3.76;94.34;100360.92;109140;1253;70106;-80
2023/01/14 06:58:48;;;;;;;17.70;11.20;;;;;;;-3.79;94.64;100362.08;108569;1253;71957;-80
2023/01/14 07:01:17;;;;;;;19.50;11.90;;;;;;;-3.72;94.23;100364.39;108539;1253;60398;-78
2023/01/14 07:03:44;;;;;;;21.20;12.50;;;;;;;-3.70;93.94;100366.20;108693;1251;60444;-80
2023/01/14 07:06:11;;;;;;;24.90;13.10;;;;;;;-3.76;94.35;100367.48;108893;1255;73634;-81
2023/01/14 07:08:38;;;;;;;28.90;14.80;;;;;;;-3.84;94.73;100361.92;108145;1252;70962;-81
2023/01/14 07:11:06;;;;;;;21.80;13.10;;;;;;;-3.87;95.01;100367.91;108781;1253;71657;-79
2023/01/14 07:13:33;;;;;;;24.70;14.10;;;;;;;-3.77;94.97;100368.22;108814;1251;59830;-79
2023/01/14 07:16:01;;;;;;;24.40;12.90;;;;;;;-3.66;94.67;100373.33;109222;1250;59490;-82
2023/01/14 07:18:29;;;;;;;19.60;13.10;;;;;;;-3.67;94.69;100375.09;109347;1256;73410;-79
2023/01/14 07:20:57;;;;;;;23.90;13.30;;;;;;;-3.71;94.85;100374.41;109204;1254;70096;-81
2023/01/14 07:23:24;;;;;;;23.50;13.50;;;;;;;-3.68;94.91;100373.59;109321;1251;72689;-79
2023/01/14 07:25:55;;;;;;;25.30;14.00;;;;;;;-3.55;94.41;100374.58;109135;1251;58427;-80
2023/01/14 07:28:25;;;;;;;28.50;15.80;;;;;;;-3.53;94.41;100379.04;109162;1254;60570;-83
2023/01/14 07:30:52;;;;;;;35.60;18.50;;;;;;;-3.56;94.92;100376.89;109030;1251;73985;-82
2023/01/14 07:33:21;;;;;;;35.30;19.10;;;;;;;-3.53;95.42;100384.55;109374;1254;70215;-83
2023/01/14 07:35:51;;;;;;;29.50;15.70;;;;;;;-3.45;95.17;100380.58;109614;1253;71496;-83
2023/01/14 07:38:20;;;;;;;28.00;14.20;;;;;;;-3.29;94.36;100387.40;109137;1251;58527;-76
2023/01/14 07:40:47;;;;;;;29.30;16.60;;;;;;;-3.31;93.82;100389.02;109352;1253;59987;-77
2023/01/14 07:43:14;;;;;;;34.00;16.30;;;;;;;-3.40;94.12;100392.84;108599;1251;72234;-78
2023/01/14 07:45:41;;;;;;;26.10;14.90;;;;;;;-3.42;94.06;100388.77;108298;1251;69915;-78
2023/01/14 07:48:09;;;;;;;27.10;14.50;;;;;;;-3.33;93.73;100392.76;109572;1251;71313;-76
2023/01/14 07:50:35;;;;;;;26.50;14.20;;;;;;;-3.30;93.52;100392.98;109172;1253;59472;-79
2023/01/14 07:53:02;;;;;;;24.10;13.50;;;;;;;-3.36;93.71;100398.91;109002;1252;60392;-77
2023/01/14 07:55:29;;;;;;;24.90;14.20;;;;;;;-3.38;94.04;100404.19;108646;1251;74729;-79
2023/01/14 07:57:55;;;;;;;24.30;14.00;;;;;;;-3.40;94.01;100398.92;109342;1255;69686;-78
2023/01/14 08:00:26;;;;;;;23.30;14.40;;;;;;;-3.30;93.43;100395.41;108875;1256;71862;-78
2023/01/14 08:02:53;;;;;;;25.10;14.30;;;;;;;-3.28;93.46;100395.52;108876;1251;60395;-76
2023/01/14 08:05:20;;;;;;;27.10;15.10;;;;;;;-3.30;93.70;100398.67;108902;1254;59723;-77
2023/01/14 08:07:47;;;;;;;24.80;13.10;;;;;;;-3.31;93.65;100402.55;108685;1253;154124;-76
2023/01/14 08:11:04;;;;;;;27.30;13.80;;;;;;;-3.17;93.26;100408.38;105466;1292;600059;-80
2023/01/14 08:13:31;;;;;;;28.90;17.10;;;;;;;-3.17;93.14;100407.33;108010;1266;59062;-80
2023/01/14 08:16:00;;;;;;;28.20;14.80;;;;;;;-3.23;93.32;100408.60;107376;1263;59450;-81
2023/01/14 08:18:29;;;;;;;26.30;14.40;;;;;;;-3.24;93.54;100405.71;107548;1263;72183;-79
2023/01/14 08:20:57;;;;;;;25.40;13.80;;;;;;;-3.10;93.24;100410.85;107966;1265;71239;-80
2023/01/14 08:23:25;;;;;;;28.60;16.50;;;;;;;-3.10;92.87;100408.93;108103;1260;73478;-79
2023/01/14 08:25:53;;;;;;;34.80;18.70;;;;;;;-3.14;93.44;100408.58;108382;1257;174578;-81
2023/01/14 08:28:20;;;;;;;29.10;17.30;;;;;;;-3.12;94.00;100410.94;108719;1263;60933;-80
2023/01/14 08:30:46;;;;;;;29.90;14.90;;;;;;;-3.08;94.02;100407.65;108650;1256;73117;-79
2023/01/14 08:33:14;;;;;;;28.60;14.80;;;;;;;-2.93;93.50;100405.60;108345;1256;71704;-79
2023/01/14 08:35:41;;;;;;;28.10;15.40;;;;;;;-2.85;92.87;100409.45;108480;1256;74169;-81
2023/01/14 08:38:08;;;;;;;35.90;18.60;;;;;;;-2.87;93.01;100416.47;107690;1262;59561;-76
2023/01/14 08:40:35;;;;;;;34.20;18.00;;;;;;;-2.89;93.19;100416.57;107892;1256;61187;-78
2023/01/14 08:43:02;;;;;;;27.80;15.90;;;;;;;-2.90;93.05;100420.07;108177;1256;72284;-75
2023/01/14 08:45:29;;;;;;;31.10;18.10;;;;;;;-2.81;92.74;100418.77;107501;1257;68989;-77
2023/01/14 08:47:56;;;;;;;29.60;16.70;;;;;;;-2.72;92.66;100418.08;106459;1262;72078;-74
2023/01/14 08:50:23;;;;;;;36.80;18.30;;;;;;;-2.73;92.53;100421.06;105796;1257;60076;-75
2023/01/14 08:52:50;;;;;;;33.60;19.30;;;;;;;-2.82;92.29;100412.23;105827;1257;62397;-76
2023/01/14 08:55:17;;;;;;;34.00;18.10;;;;;;;-2.89;92.42;100407.34;105648;1266;75407;-76
2023/01/14 08:57:44;;;;;;;32.00;17.50;;;;;;;-2.83;92.39;100406.73;105705;1261;71274;-74
2023/01/14 09:00:12;;;;;;;39.60;19.60;;;;;;;-2.74;92.40;100403.58;105388;1269;71416;-72
2023/01/14 09:02:39;;;;;;;32.80;18.10;;;;;;;-2.71;92.69;100401.72;105719;1262;60271;-72
2023/01/14 09:05:07;;;;;;;31.70;17.10;;;;;;;-2.75;92.57;100399.81;105800;1262;61878;-71
2023/01/14 09:18:47;;;;;;;39.10;16.90;;;;;;;-2.89;92.44;100396.25;105498;1262;62020;-73
2023/01/14 09:21:13;;;;;;;33.20;17.20;;;;;;;-2.92;92.57;100394.13;105573;1262;74987;-71
2023/01/14 09:23:40;;;;;;;32.20;17.30;;;;;;;-2.81;92.28;100399.53;105635;1261;69476;-72
2023/01/14 09:26:08;;;;;;;35.70;19.40;;;;;;;-2.77;92.05;100393.30;105779;1261;74781;-74
2023/01/14 09:28:35;;;;;;;42.60;22.40;;;;;;;-2.80;92.55;100402.27;105504;1261;59643;-71
2023/01/14 09:31:01;;;;;;;37.20;20.00;;;;;;;-2.83;92.35;100400.69;105701;1257;61446;-70
2023/01/14 09:33:28;;;;;;;32.90;16.90;;;;;;;-2.85;92.12;100395.91;105585;1262;73606;-72
2023/01/14 09:35:55;;;;;;;35.80;20.00;;;;;;;-2.79;92.01;100396.16;105575;1258;72469;-71
2023/01/14 09:38:22;;;;;;;40.80;25.00;;;;;;;-2.86;92.09;100395.96;105725;1263;73497;-71
2023/01/14 09:40:49;;;;;;;34.60;20.00;;;;;;;-2.99;92.36;100393.72;105434;1263;60675;-71
2023/01/14 09:43:35;;;;;;;32.00;17.20;;;;;;;-3.04;92.97;100402.11;105577;1260;61156;-73
2023/01/14 09:46:02;;;;;;;32.60;17.60;;;;;;;-2.96;92.60;100396.74;105493;1258;75248;-73
2023/01/14 09:48:29;;;;;;;35.00;19.90;;;;;;;-2.95;92.32;100402.08;105654;1260;69333;-76
2023/01/14 09:51:34;;;;;;;34.80;19.80;;;;;;;-3.06;92.61;100395.78;105606;1262;73658;-76
2023/01/14 09:54:02;;;;;;;31.60;16.70;;;;;;;-3.16;93.19;100394.61;105633;1263;59683;-77
2023/01/14 09:56:53;;;;;;;32.80;17.60;;;;;;;-3.08;93.28;100387.55;105734;1256;62233;-77
2023/01/14 09:59:38;;;;;;;32.60;17.80;;;;;;;-2.96;92.96;100385.29;105878;1263;75154;-78
2023/01/14 10:02:31;;;;;;;34.20;17.10;;;;;;;-2.96;93.17;100382.01;105691;1260;72284;-77
2023/01/14 10:05:01;;;;;;;37.90;18.30;;;;;;;-2.98;93.38;100382.06;105596;1260;72803;-75
2023/01/14 10:07:28;;;;;;;34.00;18.30;;;;;;;-2.95;93.22;100384.05;105566;1257;61996;-77
2023/01/14 10:09:58;;;;;;;35.40;18.70;;;;;;;-2.77;93.17;100381.86;105719;1257;62003;-74
2023/01/14 10:12:31;;;;;;;35.70;18.40;;;;;;;-2.67;93.11;100375.02;105670;1257;74363;-74
2023/01/14 10:15:17;;;;;;;29.10;17.00;;;;;;;-2.66;92.96;100379.98;105678;1258;71952;-76
2023/01/14 10:18:09;;;;;;;32.50;16.70;;;;;;;-2.72;92.56;100379.73;105591;1263;71935;-75
2023/01/14 10:20:59;;;;;;;28.50;14.90;;;;;;;-2.72;92.15;100385.45;106106;1266;61029;-75
2023/01/14 10:23:36;;;;;;;31.40;16.20;;;;;;;-2.66;91.57;100377.92;105538;1262;62459;-76
2023/01/14 10:26:17;;;;;;;33.60;17.90;;;;;;;-2.72;91.61;100385.30;105485;1257;74818;-75
2023/01/14 10:28:45;;;;;;;31.00;16.90;;;;;;;-2.84;91.97;100388.04;105790;1260;72204;-75
2023/01/14 10:31:17;;;;;;;30.70;16.50;;;;;;;-2.88;92.31;100385.63;105644;1257;74515;-76
2023/01/14 10:33:45;;;;;;;28.10;15.80;;;;;;;-2.78;92.47;100385.55;105698;1255;62405;-76
2023/01/14 10:36:18;;;;;;;29.10;16.60;;;;;;;-2.60;92.14;100381.64;105574;1262;60197;-76
2023/01/14 10:38:45;;;;;;;35.80;20.70;;;;;;;-2.62;91.52;100382.56;105401;1262;75138;-75
2023/01/14 10:41:12;;;;;;;33.10;18.60;;;;;;;-2.73;91.86;100383.96;105488;1258;70773;-75
2023/01/14 10:43:52;;;;;;;33.40;17.20;;;;;;;-2.79;92.39;100388.38;105431;1258;74533;-74
2023/01/14 10:46:20;;;;;;;31.50;17.50;;;;;;;-2.75;92.26;100381.23;105767;1257;61785;-76
2023/01/14 10:48:58;;;;;;;33.50;17.40;;;;;;;-2.74;92.27;100378.46;105738;1257;60963;-75
2023/01/14 10:51:33;;;;;;;42.30;22.00;;;;;;;-2.83;92.61;100383.88;105565;1261;75671;-74
2023/01/14 10:54:16;;;;;;;40.60;19.40;;;;;;;-2.91;93.17;100380.91;105573;1260;72003;-77
2023/01/14 10:56:58;;;;;;;34.50;19.70;;;;;;;-2.88;93.22;100380.09;105706;1261;73448;-76
2023/01/14 10:59:27;;;;;;;39.20;20.60;;;;;;;-2.85;93.13;100380.31;105872;1260;59719;-75
2023/01/14 11:01:53;;;;;;;36.70;17.90;;;;;;;-2.96;93.32;100380.95;105948;1258;59506;-78
2023/01/14 11:04:29;;;;;;;35.20;17.50;;;;;;;-3.04;93.76;100377.31;105904;1258;72772;-75
2023/01/14 11:06:56;;;;;;;40.10;20.60;;;;;;;-3.00;93.85;100377.81;106042;1258;71179;-77
2023/01/14 11:09:28;;;;;;;48.20;22.30;;;;;;;-3.03;94.06;100378.81;107177;1261;73751;-77
2023/01/14 11:11:56;;;;;;;41.70;22.10;;;;;;;-3.12;94.60;100375.57;106974;1256;60807;-76
2023/01/14 13:18:35;;;;;;;44.60;25.60;;;;;;;-2.48;98.00;100382.45;105717;1263;614463;-72
2023/01/14 13:21:06;;;;;;;38.10;23.20;;;;;;;-2.02;96.57;100382.95;107332;1244;361768;-73
2023/01/14 13:23:36;;;;;;;39.90;22.40;;;;;;;-2.01;96.13;100381.54;107533;1245;60072;-76
2023/01/14 13:26:17;;;;;;;44.40;24.40;;;;;;;-2.08;96.28;100383.09;107682;1244;72194;-74
2023/01/14 13:29:16;;;;;;;38.10;20.50;;;;;;;-2.14;96.98;100387.72;107591;1245;70310;-73
2023/01/14 13:31:43;;;;;;;42.60;23.40;;;;;;;-2.18;96.63;100391.50;107699;1244;71330;-74
2023/01/14 13:34:23;;;;;;;38.10;21.90;;;;;;;-2.11;95.76;100391.04;107753;1243;60727;-75
2023/01/14 13:37:02;;;;;;;37.80;21.20;;;;;;;-2.20;95.36;100392.83;107654;1245;61295;-74
2023/01/14 13:39:30;;;;;;;52.50;26.90;;;;;;;-2.33;95.17;100391.16;107741;1247;71115;-74
2023/01/14 13:41:58;;;;;;;40.40;21.20;;;;;;;-2.44;95.06;100389.96;107687;1245;71047;-75
2023/01/14 13:44:29;;;;;;;37.30;21.70;;;;;;;-2.39;94.99;100390.92;107875;1243;72799;-75
2023/01/14 13:46:56;;;;;;;37.40;20.40;;;;;;;-2.33;95.04;100395.19;107703;1247;59975;-75
2023/01/14 13:49:40;;;;;;;37.10;20.30;;;;;;;-2.39;94.99;100399.78;107787;1244;59980;-74
2023/01/14 13:52:13;;;;;;;36.40;20.30;;;;;;;-2.46;94.94;100396.30;107797;1244;72975;-75